sensor_id;sensor_type;location;lat;lon;timestamp;temperature;humidity
31207;DHT22;17834;52.992;8.856;2023-08-08T00:02:14;11.70;99.90
31207;DHT22;17834;52.992;8.856;2023-08-08T00:04:39;11.70;99.90
31207;DHT22;17834;52.992;8.856;2023-08-08T00:07:05;11.80;99.90
31207;DHT22;17834;52.992;8.856;2023-08-08T00:09:31;11.70;99.90
31207;DHT22;17834;52.992;8.856;2023-08-08T00:11:57;11.80;99.90
31207;DHT22;17834;52.992;8.856;2023-08-08T00:14:24;11.80;99.90
31207;DHT22;17834;52.992;8.856;2023-08-08T00:16:50;11.80;99.90
31207;DHT22;17834;52.992;8.856;2023-08-08T00:19:15;11.80;99.90
31207;DHT22;17834;52.992;8.856;2023-08-08T00:21:41;11.90;99.90
31207;DHT22;17834;52.992;8.856;2023-08-08T00:24:06;11.90;99.90
31207;DHT22;17834;52.992;8.856;2023-08-08T00:26:32;11.90;99.90
31207;DHT22;17834;52.992;8.856;2023-08-08T00:28:57;11.90;99.90
31207;DHT22;17834;52.992;8.856;2023-08-08T00:31:23;12.00;99.90
31207;DHT22;17834;52.992;8.856;2023-08-08T00:33:48;11.90;99.90
31207;DHT22;17834;52.992;8.856;2023-08-08T00:36:14;12.00;99.90
31207;DHT22;17834;52.992;8.856;2023-08-08T00:38:39;11.90;99.90
31207;DHT22;17834;52.992;8.856;2023-08-08T00:41:05;11.90;99.90
31207;DHT22;17834;52.992;8.856;2023-08-08T00:43:30;12.00;99.90
31207;DHT22;17834;52.992;8.856;2023-08-08T00:45:57;11.90;99.90
31207;DHT22;17834;52.992;8.856;2023-08-08T00:48:23;11.90;99.90
31207;DHT22;17834;52.992;8.856;2023-08-08T00:50:50;11.90;99.90
31207;DHT22;17834;52.992;8.856;2023-08-08T00:53:17;11.90;99.90
31207;DHT22;17834;52.992;8.856;2023-08-08T00:55:42;11.80;99.90
31207;DHT22;17834;52.992;8.856;2023-08-08T00:58:08;11.80;99.90
31207;DHT22;17834;52.992;8.856;2023-08-08T01:00:34;11.70;99.90
31207;DHT22;17834;52.992;8.856;2023-08-08T01:02:59;11.70;99.90
31207;DHT22;17834;52.992;8.856;2023-08-08T01:05:29;11.80;99.90
31207;DHT22;17834;52.992;8.856;2023-08-08T01:08:04;11.70;99.90
31207;DHT22;17834;52.992;8.856;2023-08-08T01:10:39;11.70;99.90
31207;DHT22;17834;52.992;8.856;2023-08-08T01:13:09;11.70;99.90
31207;DHT22;17834;52.992;8.856;2023-08-08T01:15:36;11.70;99.90
31207;DHT22;17834;52.992;8.856;2023-08-08T01:18:05;11.60;99.90
31207;DHT22;17834;52.992;8.856;2023-08-08T01:20:32;11.70;99.90
31207;DHT22;17834;52.992;8.856;2023-08-08T01:23:30;11.70;99.90
31207;DHT22;17834;52.992;8.856;2023-08-08T01:25:58;11.70;99.90
31207;DHT22;17834;52.992;8.856;2023-08-08T01:28:24;11.70;99.90
31207;DHT22;17834;52.992;8.856;2023-08-08T01:30:51;11.70;99.90
31207;DHT22;17834;52.992;8.856;2023-08-08T01:33:16;11.70;99.90
31207;DHT22;17834;52.992;8.856;2023-08-08T01:35:46;11.80;99.90
31207;DHT22;17834;52.992;8.856;2023-08-08T01:38:30;11.80;99.90
31207;DHT22;17834;52.992;8.856;2023-08-08T01:40:57;11.90;99.90
31207;DHT22;17834;52.992;8.856;2023-08-08T01:43:24;11.90;99.90
31207;DHT22;17834;52.992;8.856;2023-08-08T01:45:50;11.90;99.90
31207;DHT22;17834;52.992;8.856;2023-08-08T01:48:16;11.90;99.90
31207;DHT22;17834;52.992;8.856;2023-08-08T01:50:42;11.90;99.90
31207;DHT22;17834;52.992;8.856;2023-08-08T01:53:07;11.90;99.90
31207;DHT22;17834;52.992;8.856;2023-08-08T01:55:33;11.90;99.90
31207;DHT22;17834;52.992;8.856;2023-08-08T01:57:58;12.00;99.90
31207;DHT22;17834;52.992;8.856;2023-08-08T02:00:24;12.00;99.90
31207;DHT22;17834;52.992;8.856;2023-08-08T02:02:50;12.10;99.90
31207;DHT22;17834;52.992;8.856;2023-08-08T02:05:15;12.10;99.90
31207;DHT22;17834;52.992;8.856;2023-08-08T02:07:41;12.10;99.90
31207;DHT22;17834;52.992;8.856;2023-08-08T02:10:06;12.20;99.90
31207;DHT22;17834;52.992;8.856;2023-08-08T02:12:32;12.20;99.90
31207;DHT22;17834;52.992;8.856;2023-08-08T02:14:58;12.20;99.90
31207;DHT22;17834;52.992;8.856;2023-08-08T02:17:25;12.10;99.90
31207;DHT22;17834;52.992;8.856;2023-08-08T02:19:51;12.10;99.90
31207;DHT22;17834;52.992;8.856;2023-08-08T02:22:17;12.10;99.90
31207;DHT22;17834;52.992;8.856;2023-08-08T02:24:42;12.10;99.90
31207;DHT22;17834;52.992;8.856;2023-08-08T02:27:08;12.10;99.90
31207;DHT22;17834;52.992;8.856;2023-08-08T02:29:34;12.10;99.90
31207;DHT22;17834;52.992;8.856;2023-08-08T02:31:59;12.10;99.90
31207;DHT22;17834;52.992;8.856;2023-08-08T02:34:25;12.10;99.90
31207;DHT22;17834;52.992;8.856;2023-08-08T02:36:50;12.10;99.90
31207;DHT22;17834;52.992;8.856;2023-08-08T02:39:16;12.10;99.90
31207;DHT22;17834;52.992;8.856;2023-08-08T02:41:42;12.00;99.90
31207;DHT22;17834;52.992;8.856;2023-08-08T02:44:08;12.00;99.90
31207;DHT22;17834;52.992;8.856;2023-08-08T02:46:33;12.00;99.90
31207;DHT22;17834;52.992;8.856;2023-08-08T02:48:59;11.90;99.90
31207;DHT22;17834;52.992;8.856;2023-08-08T02:51:24;11.90;99.90
31207;DHT22;17834;52.992;8.856;2023-08-08T02:53:50;11.90;99.90
31207;DHT22;17834;52.992;8.856;2023-08-08T02:56:15;11.90;99.90
31207;DHT22;17834;52.992;8.856;2023-08-08T02:58:41;11.90;99.90
31207;DHT22;17834;52.992;8.856;2023-08-08T03:01:06;12.00;99.90
31207;DHT22;17834;52.992;8.856;2023-08-08T03:03:32;12.00;99.90
31207;DHT22;17834;52.992;8.856;2023-08-08T03:05:57;12.00;99.90
31207;DHT22;17834;52.992;8.856;2023-08-08T03:08:23;12.00;99.90
31207;DHT22;17834;52.992;8.856;2023-08-08T03:10:49;12.10;99.90
31207;DHT22;17834;52.992;8.856;2023-08-08T03:13:15;12.10;99.90
31207;DHT22;17834;52.992;8.856;2023-08-08T03:15:40;12.10;99.90
31207;DHT22;17834;52.992;8.856;2023-08-08T03:18:06;12.10;99.90
31207;DHT22;17834;52.992;8.856;2023-08-08T03:20:31;12.10;99.90
31207;DHT22;17834;52.992;8.856;2023-08-08T03:22:57;12.20;99.90
31207;DHT22;17834;52.992;8.856;2023-08-08T03:25:22;12.20;99.90
31207;DHT22;17834;52.992;8.856;2023-08-08T03:27:48;12.20;99.90
31207;DHT22;17834;52.992;8.856;2023-08-08T03:30:14;12.30;99.90
31207;DHT22;17834;52.992;8.856;2023-08-08T03:32:39;12.30;99.90
31207;DHT22;17834;52.992;8.856;2023-08-08T03:35:05;12.30;99.90
31207;DHT22;17834;52.992;8.856;2023-08-08T03:37:31;12.30;99.90
31207;DHT22;17834;52.992;8.856;2023-08-08T03:39:57;12.40;99.90
31207;DHT22;17834;52.992;8.856;2023-08-08T03:42:22;12.40;99.90
31207;DHT22;17834;52.992;8.856;2023-08-08T03:44:48;12.30;99.90
31207;DHT22;17834;52.992;8.856;2023-08-08T03:47:14;12.40;99.90
31207;DHT22;17834;52.992;8.856;2023-08-08T03:49:39;12.50;99.90
31207;DHT22;17834;52.992;8.856;2023-08-08T03:52:05;12.40;99.90
31207;DHT22;17834;52.992;8.856;2023-08-08T03:54:31;12.50;99.90
31207;DHT22;17834;52.992;8.856;2023-08-08T03:56:56;12.50;99.90
31207;DHT22;17834;52.992;8.856;2023-08-08T03:59:22;12.50;99.90
31207;DHT22;17834;52.992;8.856;2023-08-08T04:01:47;12.60;99.90
31207;DHT22;17834;52.992;8.856;2023-08-08T04:04:13;12.60;99.90
31207;DHT22;17834;52.992;8.856;2023-08-08T04:06:38;12.60;99.90
31207;DHT22;17834;52.992;8.856;2023-08-08T04:09:04;12.60;99.90
31207;DHT22;17834;52.992;8.856;2023-08-08T04:11:29;12.60;99.90
31207;DHT22;17834;52.992;8.856;2023-08-08T04:13:55;12.70;99.90
31207;DHT22;17834;52.992;8.856;2023-08-08T04:16:20;12.70;99.90
31207;DHT22;17834;52.992;8.856;2023-08-08T04:18:46;12.80;99.90
31207;DHT22;17834;52.992;8.856;2023-08-08T04:21:11;12.80;99.90
31207;DHT22;17834;52.992;8.856;2023-08-08T04:23:37;12.90;99.90
31207;DHT22;17834;52.992;8.856;2023-08-08T04:26:02;12.90;99.90
31207;DHT22;17834;52.992;8.856;2023-08-08T04:28:28;12.90;99.90
31207;DHT22;17834;52.992;8.856;2023-08-08T04:30:54;13.00;99.90
31207;DHT22;17834;52.992;8.856;2023-08-08T04:33:19;13.00;99.90
31207;DHT22;17834;52.992;8.856;2023-08-08T04:35:45;13.10;99.90
31207;DHT22;17834;52.992;8.856;2023-08-08T04:38:10;13.20;99.90
31207;DHT22;17834;52.992;8.856;2023-08-08T04:40:36;13.20;99.90
31207;DHT22;17834;52.992;8.856;2023-08-08T04:43:01;13.20;99.90
31207;DHT22;17834;52.992;8.856;2023-08-08T04:45:27;13.30;99.90
31207;DHT22;17834;52.992;8.856;2023-08-08T04:47:54;13.30;99.90
31207;DHT22;17834;52.992;8.856;2023-08-08T04:50:20;13.40;99.90
31207;DHT22;17834;52.992;8.856;2023-08-08T04:52:45;13.40;99.90
31207;DHT22;17834;52.992;8.856;2023-08-08T04:55:11;13.50;99.90
31207;DHT22;17834;52.992;8.856;2023-08-08T04:57:36;13.60;99.90
31207;DHT22;17834;52.992;8.856;2023-08-08T05:00:02;13.60;99.90
31207;DHT22;17834;52.992;8.856;2023-08-08T05:02:30;13.70;99.90
31207;DHT22;17834;52.992;8.856;2023-08-08T05:04:56;13.80;99.90
31207;DHT22;17834;52.992;8.856;2023-08-08T05:07:21;13.90;99.90
31207;DHT22;17834;52.992;8.856;2023-08-08T05:09:47;14.00;99.90
31207;DHT22;17834;52.992;8.856;2023-08-08T05:12:12;14.10;99.90
31207;DHT22;17834;52.992;8.856;2023-08-08T05:14:38;14.30;99.90
31207;DHT22;17834;52.992;8.856;2023-08-08T05:17:03;14.40;99.90
31207;DHT22;17834;52.992;8.856;2023-08-08T05:19:29;14.50;99.90
31207;DHT22;17834;52.992;8.856;2023-08-08T05:21:54;14.60;99.90
31207;DHT22;17834;52.992;8.856;2023-08-08T05:24:20;14.60;99.90
31207;DHT22;17834;52.992;8.856;2023-08-08T05:26:46;14.80;99.90
31207;DHT22;17834;52.992;8.856;2023-08-08T05:29:11;14.90;99.90
31207;DHT22;17834;52.992;8.856;2023-08-08T05:31:37;14.90;99.90
31207;DHT22;17834;52.992;8.856;2023-08-08T05:34:02;14.90;99.90
31207;DHT22;17834;52.992;8.856;2023-08-08T05:36:28;14.90;99.90
31207;DHT22;17834;52.992;8.856;2023-08-08T05:38:53;14.90;99.90
31207;DHT22;17834;52.992;8.856;2023-08-08T05:41:19;14.90;99.90
31207;DHT22;17834;52.992;8.856;2023-08-08T05:43:44;15.00;99.90
31207;DHT22;17834;52.992;8.856;2023-08-08T05:46:10;15.10;99.90
31207;DHT22;17834;52.992;8.856;2023-08-08T05:48:35;15.30;99.90
31207;DHT22;17834;52.992;8.856;2023-08-08T05:51:01;15.50;99.90
31207;DHT22;17834;52.992;8.856;2023-08-08T05:53:28;15.80;99.90
31207;DHT22;17834;52.992;8.856;2023-08-08T05:55:53;16.10;99.90
31207;DHT22;17834;52.992;8.856;2023-08-08T05:58:19;16.80;99.90
31207;DHT22;17834;52.992;8.856;2023-08-08T06:00:44;17.90;99.90
31207;DHT22;17834;52.992;8.856;2023-08-08T06:03:10;19.10;99.90
31207;DHT22;17834;52.992;8.856;2023-08-08T06:05:36;19.60;99.90
31207;DHT22;17834;52.992;8.856;2023-08-08T06:08:02;19.70;99.90
31207;DHT22;17834;52.992;8.856;2023-08-08T06:10:29;19.40;99.90
31207;DHT22;17834;52.992;8.856;2023-08-08T06:12:54;19.30;99.90
31207;DHT22;17834;52.992;8.856;2023-08-08T06:15:20;18.90;99.90
31207;DHT22;17834;52.992;8.856;2023-08-08T06:17:46;18.70;99.90
31207;DHT22;17834;52.992;8.856;2023-08-08T06:20:11;18.80;99.90
31207;DHT22;17834;52.992;8.856;2023-08-08T06:22:38;18.60;99.90
31207;DHT22;17834;52.992;8.856;2023-08-08T06:25:04;18.40;99.90
31207;DHT22;17834;52.992;8.856;2023-08-08T06:27:30;18.20;99.90
31207;DHT22;17834;52.992;8.856;2023-08-08T06:29:55;18.20;99.90
31207;DHT22;17834;52.992;8.856;2023-08-08T06:32:21;18.10;99.90
31207;DHT22;17834;52.992;8.856;2023-08-08T06:34:47;18.10;99.90
31207;DHT22;17834;52.992;8.856;2023-08-08T06:37:12;18.10;99.90
31207;DHT22;17834;52.992;8.856;2023-08-08T06:39:38;18.10;99.90
31207;DHT22;17834;52.992;8.856;2023-08-08T06:42:05;18.00;99.90
31207;DHT22;17834;52.992;8.856;2023-08-08T06:44:32;17.90;99.90
31207;DHT22;17834;52.992;8.856;2023-08-08T06:46:58;17.90;99.90
31207;DHT22;17834;52.992;8.856;2023-08-08T06:49:23;17.80;99.90
31207;DHT22;17834;52.992;8.856;2023-08-08T06:51:49;17.80;99.90
31207;DHT22;17834;52.992;8.856;2023-08-08T06:54:14;17.70;99.90
31207;DHT22;17834;52.992;8.856;2023-08-08T06:56:40;17.90;99.90
31207;DHT22;17834;52.992;8.856;2023-08-08T06:59:05;17.90;99.90
31207;DHT22;17834;52.992;8.856;2023-08-08T07:01:31;17.90;99.90
31207;DHT22;17834;52.992;8.856;2023-08-08T07:03:57;17.90;99.90
31207;DHT22;17834;52.992;8.856;2023-08-08T07:06:22;17.90;99.90
31207;DHT22;17834;52.992;8.856;2023-08-08T07:08:48;18.00;99.90
31207;DHT22;17834;52.992;8.856;2023-08-08T07:11:13;18.10;99.90
31207;DHT22;17834;52.992;8.856;2023-08-08T07:13:39;18.20;99.90
31207;DHT22;17834;52.992;8.856;2023-08-08T07:16:04;18.40;99.90
31207;DHT22;17834;52.992;8.856;2023-08-08T07:18:30;18.40;99.90
31207;DHT22;17834;52.992;8.856;2023-08-08T07:20:55;18.50;99.90
31207;DHT22;17834;52.992;8.856;2023-08-08T07:23:22;18.70;99.90
31207;DHT22;17834;52.992;8.856;2023-08-08T07:25:47;19.20;99.90
31207;DHT22;17834;52.992;8.856;2023-08-08T07:28:13;19.80;99.90
31207;DHT22;17834;52.992;8.856;2023-08-08T07:30:40;20.20;99.90
31207;DHT22;17834;52.992;8.856;2023-08-08T07:33:06;20.60;99.90
31207;DHT22;17834;52.992;8.856;2023-08-08T07:35:33;21.40;99.90
31207;DHT22;17834;52.992;8.856;2023-08-08T07:37:58;21.60;99.90
31207;DHT22;17834;52.992;8.856;2023-08-08T07:40:24;21.30;99.90
31207;DHT22;17834;52.992;8.856;2023-08-08T07:42:49;20.80;99.90
31207;DHT22;17834;52.992;8.856;2023-08-08T07:45:15;20.40;99.90
31207;DHT22;17834;52.992;8.856;2023-08-08T07:47:41;20.00;99.90
31207;DHT22;17834;52.992;8.856;2023-08-08T07:50:08;19.80;99.90
31207;DHT22;17834;52.992;8.856;2023-08-08T07:52:37;19.40;99.90
31207;DHT22;17834;52.992;8.856;2023-08-08T07:55:03;19.10;99.90
31207;DHT22;17834;52.992;8.856;2023-08-08T07:57:29;18.70;99.90
31207;DHT22;17834;52.992;8.856;2023-08-08T08:00:00;18.40;99.90
31207;DHT22;17834;52.992;8.856;2023-08-08T08:02:32;18.10;99.90
31207;DHT22;17834;52.992;8.856;2023-08-08T08:04:57;18.10;99.90
31207;DHT22;17834;52.992;8.856;2023-08-08T08:07:23;18.00;99.90
31207;DHT22;17834;52.992;8.856;2023-08-08T08:09:49;18.20;99.90
31207;DHT22;17834;52.992;8.856;2023-08-08T08:12:14;18.60;99.90
31207;DHT22;17834;52.992;8.856;2023-08-08T08:14:40;18.90;99.90
31207;DHT22;17834;52.992;8.856;2023-08-08T08:17:05;19.30;99.90
31207;DHT22;17834;52.992;8.856;2023-08-08T08:19:31;19.80;99.90
31207;DHT22;17834;52.992;8.856;2023-08-08T08:21:56;20.20;99.90
31207;DHT22;17834;52.992;8.856;2023-08-08T08:24:22;20.60;99.90
31207;DHT22;17834;52.992;8.856;2023-08-08T08:26:48;20.90;99.90
31207;DHT22;17834;52.992;8.856;2023-08-08T08:29:14;20.90;99.90
31207;DHT22;17834;52.992;8.856;2023-08-08T08:31:39;20.90;99.90
31207;DHT22;17834;52.992;8.856;2023-08-08T08:34:05;20.90;99.90
31207;DHT22;17834;52.992;8.856;2023-08-08T08:36:30;20.60;99.90
31207;DHT22;17834;52.992;8.856;2023-08-08T08:38:56;20.30;99.70
31207;DHT22;17834;52.992;8.856;2023-08-08T08:41:25;19.90;99.90
31207;DHT22;17834;52.992;8.856;2023-08-08T08:43:51;19.70;99.90
31207;DHT22;17834;52.992;8.856;2023-08-08T08:46:21;19.80;99.90
31207;DHT22;17834;52.992;8.856;2023-08-08T08:48:49;19.80;99.90
31207;DHT22;17834;52.992;8.856;2023-08-08T08:51:15;19.50;99.90
31207;DHT22;17834;52.992;8.856;2023-08-08T08:53:41;19.40;99.90
31207;DHT22;17834;52.992;8.856;2023-08-08T08:56:08;19.20;99.90
31207;DHT22;17834;52.992;8.856;2023-08-08T08:58:34;19.20;99.90
31207;DHT22;17834;52.992;8.856;2023-08-08T09:01:00;19.40;99.90
31207;DHT22;17834;52.992;8.856;2023-08-08T09:03:26;19.50;99.90
31207;DHT22;17834;52.992;8.856;2023-08-08T09:05:52;19.30;99.90
31207;DHT22;17834;52.992;8.856;2023-08-08T09:08:19;19.20;99.90
31207;DHT22;17834;52.992;8.856;2023-08-08T09:10:45;19.20;99.90
31207;DHT22;17834;52.992;8.856;2023-08-08T09:13:10;19.20;99.90
31207;DHT22;17834;52.992;8.856;2023-08-08T09:15:36;19.20;99.90
31207;DHT22;17834;52.992;8.856;2023-08-08T09:18:02;19.20;99.90
31207;DHT22;17834;52.992;8.856;2023-08-08T09:20:27;19.30;99.90
31207;DHT22;17834;52.992;8.856;2023-08-08T09:22:54;19.30;99.90
31207;DHT22;17834;52.992;8.856;2023-08-08T09:25:19;19.50;99.90
31207;DHT22;17834;52.992;8.856;2023-08-08T09:27:45;19.90;99.90
31207;DHT22;17834;52.992;8.856;2023-08-08T09:30:10;19.90;98.80
31207;DHT22;17834;52.992;8.856;2023-08-08T09:32:37;19.80;98.80
31207;DHT22;17834;52.992;8.856;2023-08-08T09:35:03;20.00;99.30
31207;DHT22;17834;52.992;8.856;2023-08-08T09:37:29;20.10;98.90
31207;DHT22;17834;52.992;8.856;2023-08-08T09:40:02;20.30;98.80
31207;DHT22;17834;52.992;8.856;2023-08-08T09:42:29;20.10;97.60
31207;DHT22;17834;52.992;8.856;2023-08-08T09:44:58;20.20;97.70
31207;DHT22;17834;52.992;8.856;2023-08-08T09:47:24;20.30;98.10
31207;DHT22;17834;52.992;8.856;2023-08-08T09:49:50;20.30;97.80
31207;DHT22;17834;52.992;8.856;2023-08-08T09:52:17;20.50;97.30
31207;DHT22;17834;52.992;8.856;2023-08-08T09:54:42;20.40;96.70
31207;DHT22;17834;52.992;8.856;2023-08-08T09:57:09;20.10;96.50
31207;DHT22;17834;52.992;8.856;2023-08-08T09:59:35;20.10;96.80
31207;DHT22;17834;52.992;8.856;2023-08-08T10:02:02;20.00;97.50
31207;DHT22;17834;52.992;8.856;2023-08-08T10:04:27;20.00;97.70
31207;DHT22;17834;52.992;8.856;2023-08-08T10:06:53;20.20;97.40
31207;DHT22;17834;52.992;8.856;2023-08-08T10:09:19;20.50;98.40
31207;DHT22;17834;52.992;8.856;2023-08-08T10:11:46;20.80;97.80
31207;DHT22;17834;52.992;8.856;2023-08-08T10:14:12;21.20;97.20
31207;DHT22;17834;52.992;8.856;2023-08-08T10:16:39;21.30;96.40
31207;DHT22;17834;52.992;8.856;2023-08-08T10:19:07;21.20;95.30
31207;DHT22;17834;52.992;8.856;2023-08-08T10:21:40;21.10;95.60
31207;DHT22;17834;52.992;8.856;2023-08-08T10:24:08;21.10;95.60
31207;DHT22;17834;52.992;8.856;2023-08-08T10:26:50;21.10;95.30
31207;DHT22;17834;52.992;8.856;2023-08-08T10:29:18;21.10;93.80
31207;DHT22;17834;52.992;8.856;2023-08-08T10:31:57;21.20;93.80
31207;DHT22;17834;52.992;8.856;2023-08-08T10:34:27;21.30;92.80
31207;DHT22;17834;52.992;8.856;2023-08-08T10:37:11;21.20;91.90
31207;DHT22;17834;52.992;8.856;2023-08-08T10:39:37;21.40;90.70
31207;DHT22;17834;52.992;8.856;2023-08-08T10:42:04;21.60;91.20
31207;DHT22;17834;52.992;8.856;2023-08-08T10:44:30;22.00;92.10
31207;DHT22;17834;52.992;8.856;2023-08-08T10:46:56;22.20;91.50
31207;DHT22;17834;52.992;8.856;2023-08-08T10:49:22;22.30;89.00
31207;DHT22;17834;52.992;8.856;2023-08-08T10:51:49;22.30;87.30
31207;DHT22;17834;52.992;8.856;2023-08-08T10:54:23;22.30;89.60
31207;DHT22;17834;52.992;8.856;2023-08-08T10:56:57;21.80;87.50
31207;DHT22;17834;52.992;8.856;2023-08-08T10:59:35;21.40;89.30
31207;DHT22;17834;52.992;8.856;2023-08-08T11:02:01;20.60;93.40
31207;DHT22;17834;52.992;8.856;2023-08-08T11:04:27;19.90;98.70
31207;DHT22;17834;52.992;8.856;2023-08-08T11:06:54;19.60;99.90
31207;DHT22;17834;52.992;8.856;2023-08-08T11:09:20;19.20;99.90
31207;DHT22;17834;52.992;8.856;2023-08-08T11:11:46;19.00;99.90
31207;DHT22;17834;52.992;8.856;2023-08-08T11:14:13;18.80;99.90
31207;DHT22;17834;52.992;8.856;2023-08-08T11:16:40;18.90;99.90
31207;DHT22;17834;52.992;8.856;2023-08-08T11:19:06;18.80;99.90
31207;DHT22;17834;52.992;8.856;2023-08-08T11:21:36;18.90;99.90
31207;DHT22;17834;52.992;8.856;2023-08-08T11:24:03;18.50;99.90
31207;DHT22;17834;52.992;8.856;2023-08-08T11:26:29;18.30;99.90
31207;DHT22;17834;52.992;8.856;2023-08-08T11:28:58;18.20;99.90
31207;DHT22;17834;52.992;8.856;2023-08-08T11:31:24;18.20;99.90
31207;DHT22;17834;52.992;8.856;2023-08-08T11:33:50;18.40;99.90
31207;DHT22;17834;52.992;8.856;2023-08-08T11:36:16;18.40;99.90
31207;DHT22;17834;52.992;8.856;2023-08-08T11:38:42;18.50;99.90
31207;DHT22;17834;52.992;8.856;2023-08-08T11:41:10;18.80;99.90
31207;DHT22;17834;52.992;8.856;2023-08-08T11:43:37;19.20;99.90
31207;DHT22;17834;52.992;8.856;2023-08-08T11:46:03;19.60;99.90
31207;DHT22;17834;52.992;8.856;2023-08-08T11:48:32;20.00;99.90
31207;DHT22;17834;52.992;8.856;2023-08-08T11:50:58;20.50;99.90
31207;DHT22;17834;52.992;8.856;2023-08-08T11:53:23;21.00;99.90
31207;DHT22;17834;52.992;8.856;2023-08-08T11:55:49;21.20;99.10
31207;DHT22;17834;52.992;8.856;2023-08-08T11:58:15;21.10;97.70
31207;DHT22;17834;52.992;8.856;2023-08-08T12:00:43;21.30;99.30
31207;DHT22;17834;52.992;8.856;2023-08-08T12:03:11;21.10;98.50
31207;DHT22;17834;52.992;8.856;2023-08-08T12:05:39;20.70;97.10
31207;DHT22;17834;52.992;8.856;2023-08-08T12:08:06;20.30;98.20
31207;DHT22;17834;52.992;8.856;2023-08-08T12:10:32;19.90;99.50
31207;DHT22;17834;52.992;8.856;2023-08-08T12:12:58;19.70;99.90
31207;DHT22;17834;52.992;8.856;2023-08-08T12:15:29;19.50;99.90
31207;DHT22;17834;52.992;8.856;2023-08-08T12:17:55;19.20;99.90
31207;DHT22;17834;52.992;8.856;2023-08-08T12:20:21;17.60;99.90
31207;DHT22;17834;52.992;8.856;2023-08-08T12:22:46;16.10;99.90
31207;DHT22;17834;52.992;8.856;2023-08-08T12:25:13;14.90;99.90
31207;DHT22;17834;52.992;8.856;2023-08-08T12:27:38;14.30;99.90
31207;DHT22;17834;52.992;8.856;2023-08-08T12:30:06;13.90;99.90
31207;DHT22;17834;52.992;8.856;2023-08-08T12:32:31;13.80;99.90
31207;DHT22;17834;52.992;8.856;2023-08-08T12:34:58;13.80;99.90
31207;DHT22;17834;52.992;8.856;2023-08-08T12:37:24;14.00;99.90
31207;DHT22;17834;52.992;8.856;2023-08-08T12:39:50;14.10;99.90
31207;DHT22;17834;52.992;8.856;2023-08-08T12:42:16;14.40;99.90
31207;DHT22;17834;52.992;8.856;2023-08-08T12:44:41;14.60;99.90
31207;DHT22;17834;52.992;8.856;2023-08-08T12:47:07;14.80;99.90
31207;DHT22;17834;52.992;8.856;2023-08-08T12:49:32;15.10;99.90
31207;DHT22;17834;52.992;8.856;2023-08-08T12:51:58;15.30;99.90
31207;DHT22;17834;52.992;8.856;2023-08-08T12:54:23;15.40;99.90
31207;DHT22;17834;52.992;8.856;2023-08-08T12:56:49;15.30;99.90
31207;DHT22;17834;52.992;8.856;2023-08-08T12:59:14;15.20;99.90
31207;DHT22;17834;52.992;8.856;2023-08-08T13:01:40;15.10;99.90
31207;DHT22;17834;52.992;8.856;2023-08-08T13:04:06;15.20;99.90
31207;DHT22;17834;52.992;8.856;2023-08-08T13:06:31;15.20;99.90
31207;DHT22;17834;52.992;8.856;2023-08-08T13:08:57;15.30;99.90
31207;DHT22;17834;52.992;8.856;2023-08-08T13:11:22;15.50;99.90
31207;DHT22;17834;52.992;8.856;2023-08-08T13:13:48;15.60;99.90
31207;DHT22;17834;52.992;8.856;2023-08-08T13:16:13;15.70;99.90
31207;DHT22;17834;52.992;8.856;2023-08-08T13:18:39;15.80;99.90
31207;DHT22;17834;52.992;8.856;2023-08-08T13:21:05;15.90;99.90
31207;DHT22;17834;52.992;8.856;2023-08-08T13:23:32;16.00;99.90
31207;DHT22;17834;52.992;8.856;2023-08-08T13:25:57;16.20;99.90
31207;DHT22;17834;52.992;8.856;2023-08-08T13:28:23;16.40;99.90
31207;DHT22;17834;52.992;8.856;2023-08-08T13:30:48;16.50;99.90
31207;DHT22;17834;52.992;8.856;2023-08-08T13:33:14;16.60;99.90
31207;DHT22;17834;52.992;8.856;2023-08-08T13:35:39;16.80;99.90
31207;DHT22;17834;52.992;8.856;2023-08-08T13:38:05;17.10;99.90
31207;DHT22;17834;52.992;8.856;2023-08-08T13:40:32;17.20;99.90
31207;DHT22;17834;52.992;8.856;2023-08-08T13:42:57;17.40;99.90
31207;DHT22;17834;52.992;8.856;2023-08-08T13:45:23;17.60;99.90
31207;DHT22;17834;52.992;8.856;2023-08-08T13:47:49;17.80;99.90
31207;DHT22;17834;52.992;8.856;2023-08-08T13:50:15;17.90;99.90
31207;DHT22;17834;52.992;8.856;2023-08-08T13:52:41;18.00;99.90
31207;DHT22;17834;52.992;8.856;2023-08-08T13:55:10;17.90;99.90
31207;DHT22;17834;52.992;8.856;2023-08-08T13:57:35;17.90;99.90
31207;DHT22;17834;52.992;8.856;2023-08-08T14:00:02;17.50;99.90
31207;DHT22;17834;52.992;8.856;2023-08-08T14:02:28;17.30;99.90
31207;DHT22;17834;52.992;8.856;2023-08-08T14:04:55;17.10;99.90
31207;DHT22;17834;52.992;8.856;2023-08-08T14:07:20;17.00;99.90
31207;DHT22;17834;52.992;8.856;2023-08-08T14:09:46;17.00;99.90
31207;DHT22;17834;52.992;8.856;2023-08-08T14:12:12;17.00;99.90
31207;DHT22;17834;52.992;8.856;2023-08-08T14:14:37;17.00;99.90
31207;DHT22;17834;52.992;8.856;2023-08-08T14:17:03;17.10;99.90
31207;DHT22;17834;52.992;8.856;2023-08-08T14:19:28;17.30;99.90
31207;DHT22;17834;52.992;8.856;2023-08-08T14:21:54;17.60;99.90
31207;DHT22;17834;52.992;8.856;2023-08-08T14:24:20;17.80;99.90
31207;DHT22;17834;52.992;8.856;2023-08-08T14:26:45;18.00;99.90
31207;DHT22;17834;52.992;8.856;2023-08-08T14:29:11;18.20;99.90
31207;DHT22;17834;52.992;8.856;2023-08-08T14:31:36;18.50;99.90
31207;DHT22;17834;52.992;8.856;2023-08-08T14:34:02;18.60;99.90
31207;DHT22;17834;52.992;8.856;2023-08-08T14:36:28;18.70;99.90
31207;DHT22;17834;52.992;8.856;2023-08-08T14:38:54;18.80;99.90
31207;DHT22;17834;52.992;8.856;2023-08-08T14:41:20;18.80;99.90
31207;DHT22;17834;52.992;8.856;2023-08-08T14:43:45;18.90;97.60
31207;DHT22;17834;52.992;8.856;2023-08-08T14:46:11;19.10;95.90
31207;DHT22;17834;52.992;8.856;2023-08-08T14:48:36;19.40;95.80
31207;DHT22;17834;52.992;8.856;2023-08-08T14:51:02;19.60;96.00
31207;DHT22;17834;52.992;8.856;2023-08-08T14:53:28;19.70;94.40
31207;DHT22;17834;52.992;8.856;2023-08-08T14:55:54;19.50;93.90
31207;DHT22;17834;52.992;8.856;2023-08-08T14:58:19;19.40;95.10
31207;DHT22;17834;52.992;8.856;2023-08-08T15:00:45;19.40;95.90
31207;DHT22;17834;52.992;8.856;2023-08-08T15:03:11;19.30;96.20
31207;DHT22;17834;52.992;8.856;2023-08-08T15:05:36;19.30;96.00
31207;DHT22;17834;52.992;8.856;2023-08-08T15:08:02;19.20;95.70
31207;DHT22;17834;52.992;8.856;2023-08-08T15:10:28;19.00;95.80
31207;DHT22;17834;52.992;8.856;2023-08-08T15:12:54;19.00;95.90
31207;DHT22;17834;52.992;8.856;2023-08-08T15:15:19;18.80;96.40
31207;DHT22;17834;52.992;8.856;2023-08-08T15:17:48;18.80;96.70
31207;DHT22;17834;52.992;8.856;2023-08-08T15:20:13;18.80;96.40
31207;DHT22;17834;52.992;8.856;2023-08-08T15:22:39;19.00;96.50
31207;DHT22;17834;52.992;8.856;2023-08-08T15:25:05;19.30;96.20